Time;durP1;ratioP1;P1;durP2;ratioP2;P2;SDS_P1;SDS_P2;PMS_P1;PMS_P2;Temp;Humidity;BMP_temperature;BMP_pressure;BME280_temperature;BME280_humidity;BME280_pressure;Samples;Min_cycle;Max_cycle;Signal;HPM_P1;HPM_P2
2022/04/04 00:00:43;;;;;;;1.53;1.43;;;;;;;1.67;100.00;100594.47;5070702;28;20175;-73
2022/04/04 00:03:09;;;;;;;1.63;1.53;;;;;;;1.64;100.00;100582.31;5070730;28;20668;-72
2022/04/04 00:05:34;;;;;;;2.10;2.00;;;;;;;1.65;100.00;100575.88;5070690;28;20413;-73
2022/04/04 00:08:00;;;;;;;0.70;0.70;;;;;;;1.61;100.00;100572.06;5069922;28;20171;-73
2022/04/04 00:10:25;;;;;;;1.33;1.23;;;;;;;1.61;100.00;100580.13;5070597;28;20543;-76
2022/04/04 00:12:50;;;;;;;1.80;1.70;;;;;;;1.60;100.00;100575.81;5070673;28;20209;-74
2022/04/04 00:15:16;;;;;;;0.53;0.53;;;;;;;1.59;100.00;100571.50;5070672;28;20179;-80
2022/04/04 00:17:41;;;;;;;3.50;3.20;;;;;;;1.61;100.00;100577.44;5070495;28;20174;-72
2022/04/04 00:20:08;;;;;;;0.37;0.37;;;;;;;1.59;100.00;100568.81;5070533;28;20223;-76
2022/04/04 00:22:34;;;;;;;0.53;0.53;;;;;;;1.61;100.00;100563.16;5070522;28;20194;-74
2022/04/04 00:24:59;;;;;;;3.23;2.93;;;;;;;1.56;100.00;100555.81;5070481;28;20634;-73
2022/04/04 00:27:25;;;;;;;1.30;1.20;;;;;;;1.59;100.00;100559.88;5070366;28;20175;-73
2022/04/04 00:29:50;;;;;;;2.47;2.33;;;;;;;1.62;100.00;100548.63;5070546;28;20208;-76
2022/04/04 00:32:15;;;;;;;1.13;1.10;;;;;;;1.63;100.00;100539.50;5070604;28;20182;-77
2022/04/04 00:34:41;;;;;;;0.67;0.67;;;;;;;1.67;100.00;100552.19;5069234;28;20290;-73
2022/04/04 00:37:06;;;;;;;3.23;2.97;;;;;;;1.68;100.00;100543.06;5070322;28;20175;-73
2022/04/04 00:39:31;;;;;;;0.97;0.87;;;;;;;1.67;100.00;100548.69;5070195;28;20194;-76
2022/04/04 00:41:57;;;;;;;1.83;1.73;;;;;;;1.65;100.00;100538.19;5070318;28;20235;-73
2022/04/04 00:44:22;;;;;;;2.93;1.97;;;;;;;1.67;100.00;100535.22;5070358;28;20204;-74
2022/04/04 00:46:47;;;;;;;1.83;1.73;;;;;;;1.71;100.00;100533.66;5070280;28;20190;-77
2022/04/04 00:49:13;;;;;;;11.40;2.43;;;;;;;1.72;100.00;100533.41;5070217;28;20174;-79
2022/04/04 00:51:39;;;;;;;1.00;0.90;;;;;;;1.72;100.00;100530.72;5070232;28;20202;-80
2022/04/04 00:54:05;;;;;;;1.93;1.83;;;;;;;1.71;100.00;100531.78;5070195;28;20660;-77
2022/04/04 00:56:35;;;;;;;1.33;1.23;;;;;;;1.70;100.00;100527.47;5070123;28;20534;-78
2022/04/04 00:59:03;;;;;;;2.10;1.27;;;;;;;1.70;100.00;100535.53;5070002;28;20417;-79
2022/04/04 01:01:29;;;;;;;2.13;1.63;;;;;;;1.70;100.00;100529.34;5070726;28;20447;-78
2022/04/04 01:03:54;;;;;;;1.00;1.00;;;;;;;1.72;100.00;100524.50;5070156;28;20669;-79
2022/04/04 01:06:20;;;;;;;1.70;1.60;;;;;;;1.67;100.00;100514.50;5069975;28;20178;-79
2022/04/04 01:08:45;;;;;;;1.13;1.10;;;;;;;1.67;100.00;100508.31;5069847;28;20197;-79
2022/04/04 01:11:11;;;;;;;2.50;2.40;;;;;;;1.63;100.00;100508.00;5070073;28;20265;-78
2022/04/04 01:13:37;;;;;;;2.20;2.00;;;;;;;1.63;100.00;100507.19;5069977;28;20291;-81
2022/04/04 01:16:03;;;;;;;1.33;1.23;;;;;;;1.59;100.00;100496.09;5070376;28;20266;-77
2022/04/04 01:18:28;;;;;;;1.50;1.40;;;;;;;1.59;100.00;100492.56;5069861;28;20254;-80
2022/04/04 01:20:53;;;;;;;1.93;1.77;;;;;;;1.57;100.00;100498.22;5072724;28;20175;-73
2022/04/04 01:23:23;;;;;;;1.70;1.60;;;;;;;1.54;100.00;100489.81;5073431;28;20228;-76
2022/04/04 01:25:49;;;;;;;1.07;1.07;;;;;;;1.52;100.00;100484.69;5073565;28;20285;-78
2022/04/04 01:28:14;;;;;;;2.10;2.00;;;;;;;1.52;100.00;100487.38;5073488;28;20269;-79
2022/04/04 01:30:40;;;;;;;0.83;0.83;;;;;;;1.54;100.00;100497.91;5073641;28;20175;-80
2022/04/04 01:33:06;;;;;;;2.17;1.90;;;;;;;1.52;100.00;100489.28;5073289;28;20177;-78
2022/04/04 01:35:32;;;;;;;3.20;2.90;;;;;;;1.51;100.00;100484.94;5073148;28;20538;-73
2022/04/04 01:37:58;;;;;;;5.43;4.90;;;;;;;1.49;100.00;100483.31;5072957;28;20171;-78
2022/04/04 01:40:24;;;;;;;3.50;3.20;;;;;;;1.48;100.00;100479.00;5073067;28;20691;-80
2022/04/04 01:42:55;;;;;;;3.97;3.67;;;;;;;1.48;100.00;100479.00;5073066;28;20233;-80
2022/04/04 01:46:23;;;;;;;5.73;2.63;;;;;;;1.47;100.00;100472.00;5073136;28;21132;-79
2022/04/04 01:48:06;;;;;;;1.37;1.27;;;;;;;1.49;100.00;100466.34;5072602;28;20182;-77
2022/04/04 01:50:32;;;;;;;2.93;2.73;;;;;;;1.49;100.00;100453.72;5073014;28;20420;-78
2022/04/04 01:55:44;;;;;;;1.77;1.67;;;;;;;1.50;100.00;100443.75;5073134;28;20193;-80
2022/04/04 01:58:10;;;;;;;1.37;1.27;;;;;;;1.50;100.00;100438.38;5072719;28;20405;-78
2022/04/04 02:00:35;;;;;;;2.60;2.40;;;;;;;1.53;100.00;100427.09;5072743;28;20630;-79
2022/04/04 02:03:01;;;;;;;2.77;2.57;;;;;;;1.56;100.00;100433.84;5072785;28;20224;-80
2022/04/04 02:05:26;;;;;;;2.37;2.20;;;;;;;1.55;100.00;100432.22;5072810;28;20171;-78
2022/04/04 02:07:52;;;;;;;1.10;0.83;;;;;;;1.53;100.00;100424.41;5072461;28;20171;-79
2022/04/04 02:10:17;;;;;;;1.47;1.30;;;;;;;1.54;100.00;100417.94;5072600;28;20241;-79
2022/04/04 02:12:42;;;;;;;2.20;2.10;;;;;;;1.58;100.00;100404.78;5072997;28;20636;-79
2022/04/04 02:15:08;;;;;;;2.33;2.20;;;;;;;1.60;100.00;100397.31;5072594;28;20186;-78
2022/04/04 02:17:33;;;;;;;2.33;2.23;;;;;;;1.62;100.00;100398.66;5072329;28;20653;-78
2022/04/04 02:19:58;;;;;;;2.23;1.40;;;;;;;1.65;100.00;100394.66;5072576;28;20185;-79
2022/04/04 02:22:27;;;;;;;8.33;1.23;;;;;;;1.66;100.00;100389.00;5072278;28;20217;-79
2022/04/04 02:24:52;;;;;;;1.97;1.87;;;;;;;1.68;100.00;100389.56;5072366;28;20175;-80
2022/04/04 02:27:18;;;;;;;3.23;3.03;;;;;;;1.72;100.00;100387.97;5072085;28;20425;-79
2022/04/04 02:29:43;;;;;;;5.03;4.63;;;;;;;1.76;100.00;100388.31;5072114;28;20193;-79
2022/04/04 02:32:09;;;;;;;4.33;1.60;;;;;;;1.79;100.00;100382.41;5072125;28;20177;-79
2022/04/04 02:34:35;;;;;;;1.80;1.70;;;;;;;1.78;100.00;100386.97;5072315;28;20660;-80
2022/04/04 02:37:00;;;;;;;3.80;3.50;;;;;;;1.78;100.00;100381.59;5071977;28;20197;-81
2022/04/04 02:39:25;;;;;;;2.33;2.13;;;;;;;1.78;100.00;100381.59;5071909;28;20240;-79
2022/04/04 02:41:51;;;;;;;2.03;1.80;;;;;;;1.81;100.00;100374.06;5072007;28;20629;-79
2022/04/04 02:44:16;;;;;;;2.80;2.60;;;;;;;1.81;100.00;100366.00;5071832;28;20220;-79
2022/04/04 02:46:41;;;;;;;0.83;0.83;;;;;;;1.79;100.00;100367.06;5071781;28;20534;-79
2022/04/04 02:49:06;;;;;;;1.10;1.10;;;;;;;1.81;100.00;100360.59;5071792;28;20369;-79
2022/04/04 02:51:33;;;;;;;3.70;3.50;;;;;;;1.81;100.00;100350.63;5071776;28;20220;-79
2022/04/04 02:53:58;;;;;;;5.53;5.00;;;;;;;1.81;100.00;100357.91;5071695;28;20257;-80
2022/04/04 02:56:29;;;;;;;2.83;2.73;;;;;;;1.81;100.00;100349.81;5070599;28;20500;-78
2022/04/04 02:58:57;;;;;;;1.70;1.60;;;;;;;1.85;100.00;100346.34;5071492;28;20201;-74
2022/04/04 03:01:22;;;;;;;1.60;1.50;;;;;;;1.84;100.00;100333.97;5071429;28;20456;-79
2022/04/04 03:03:48;;;;;;;6.07;3.97;;;;;;;1.85;100.00;100332.06;5071503;28;20241;-78
2022/04/04 03:06:14;;;;;;;2.87;2.53;;;;;;;1.82;100.00;100327.22;5071645;28;20236;-80
2022/04/04 03:08:40;;;;;;;1.80;1.70;;;;;;;1.78;100.00;100313.44;5071306;28;20179;-80
2022/04/04 03:11:05;;;;;;;5.17;4.67;;;;;;;1.77;100.00;100314.53;5071386;28;20262;-79
2022/04/04 03:13:30;;;;;;;15.93;4.67;;;;;;;1.73;100.00;100319.59;5071347;28;20205;-78
2022/04/04 03:15:56;;;;;;;1.67;1.57;;;;;;;1.72;100.00;100317.97;5071382;28;20174;-78
2022/04/04 03:18:21;;;;;;;5.63;5.20;;;;;;;1.73;100.00;100314.19;5070998;28;20183;-79
2022/04/04 03:20:47;;;;;;;7.27;6.67;;;;;;;1.71;100.00;100320.91;5071216;28;20610;-79
2022/04/04 03:23:12;;;;;;;4.33;3.97;;;;;;;1.74;100.00;100312.34;5071164;28;20202;-77
2022/04/04 03:25:38;;;;;;;4.30;4.00;;;;;;;1.71;100.00;100316.34;5071282;28;20204;-78
2022/04/04 03:28:03;;;;;;;3.40;3.20;;;;;;;1.73;100.00;100299.91;5070922;28;20166;-78
2022/04/04 03:30:29;;;;;;;5.47;5.10;;;;;;;1.73;100.00;100300.72;5069866;28;20174;-78
2022/04/04 03:32:57;;;;;;;2.20;2.10;;;;;;;1.70;100.00;100287.78;5070744;28;20518;-78
2022/04/04 03:35:25;;;;;;;7.87;5.93;;;;;;;1.68;100.00;100281.03;5070998;28;20206;-78
2022/04/04 03:37:53;;;;;;;5.20;4.80;;;;;;;1.69;100.00;100274.59;5070930;28;20206;-77
2022/04/04 03:40:19;;;;;;;3.40;3.20;;;;;;;1.71;100.00;100267.88;5070892;28;20689;-79
2022/04/04 03:42:47;;;;;;;2.17;2.07;;;;;;;1.69;100.00;100267.31;5070319;28;20460;-80
2022/04/04 03:45:14;;;;;;;1.57;1.50;;;;;;;1.67;100.00;100258.69;5071036;28;20210;-80
2022/04/04 03:47:42;;;;;;;15.20;4.00;;;;;;;1.68;100.00;100254.94;5070637;28;20202;-78
2022/04/04 03:50:09;;;;;;;3.77;3.50;;;;;;;1.65;100.00;100244.69;5070705;28;20228;-79
2022/04/04 03:52:35;;;;;;;4.67;4.20;;;;;;;1.68;100.00;100241.47;5071058;28;20527;-72
2022/04/04 03:55:02;;;;;;;4.00;3.63;;;;;;;1.65;100.00;100249.25;5071974;28;20434;-73
2022/04/04 03:57:27;;;;;;;4.03;3.70;;;;;;;1.61;100.00;100235.50;5073333;28;20179;-73
2022/04/04 03:59:53;;;;;;;4.30;4.00;;;;;;;1.60;100.00;100233.88;5072545;28;20495;-73
2022/04/04 04:02:19;;;;;;;5.23;4.83;;;;;;;1.58;100.00;100225.22;5070614;28;20209;-72
2022/04/04 04:04:44;;;;;;;4.97;4.47;;;;;;;1.61;100.00;100230.13;5070760;28;20175;-71
2022/04/04 04:07:14;;;;;;;4.03;3.73;;;;;;;1.63;100.00;100222.59;5070582;28;20304;-72
2022/04/04 04:09:40;;;;;;;0.80;0.80;;;;;;;1.62;100.00;100226.34;5070648;28;20167;-72
2022/04/04 04:12:05;;;;;;;2.63;2.53;;;;;;;1.62;100.00;100215.59;5070775;28;20179;-72
2022/04/04 04:14:31;;;;;;;4.13;3.77;;;;;;;1.69;100.00;100216.16;5070532;28;20532;-73
2022/04/04 04:16:57;;;;;;;5.43;4.90;;;;;;;1.67;100.00;100204.84;5070398;28;20185;-72
2022/04/04 04:22:06;;;;;;;3.50;2.57;;;;;;;1.70;99.99;100216.97;5070592;28;20252;-72
2022/04/04 04:24:31;;;;;;;5.10;3.87;;;;;;;1.73;99.79;100205.66;5070638;28;20174;-73
2022/04/04 04:26:57;;;;;;;5.50;5.03;;;;;;;1.76;99.18;100197.09;5070342;28;20534;-72
2022/04/04 04:29:22;;;;;;;4.47;4.07;;;;;;;1.79;98.91;100196.56;5070416;28;20633;-72
2022/04/04 04:31:48;;;;;;;7.33;6.73;;;;;;;1.78;98.64;100182.28;5070349;28;20177;-73
2022/04/04 04:34:13;;;;;;;4.80;4.50;;;;;;;1.79;98.31;100177.72;5070522;28;20182;-73
2022/04/04 04:36:39;;;;;;;5.33;4.83;;;;;;;1.81;98.28;100185.53;5070282;28;20518;-73
2022/04/04 04:39:06;;;;;;;5.13;4.73;;;;;;;1.78;98.38;100178.78;5070183;28;20217;-71
2022/04/04 04:41:31;;;;;;;3.53;3.23;;;;;;;1.77;98.48;100178.00;5070289;28;20178;-74
2022/04/04 04:43:57;;;;;;;5.40;4.90;;;;;;;1.77;98.66;100158.31;5070399;28;20465;-73
2022/04/04 04:46:22;;;;;;;6.07;5.57;;;;;;;1.79;98.17;100166.94;5070312;28;20253;-72
2022/04/04 04:48:47;;;;;;;5.27;4.83;;;;;;;1.78;98.47;100157.25;5070151;28;20697;-72
2022/04/04 04:51:13;;;;;;;6.27;5.77;;;;;;;1.82;98.61;100152.16;5070251;28;20652;-72
2022/04/04 04:53:38;;;;;;;4.00;3.70;;;;;;;1.85;97.78;100157.00;5071275;28;20177;-72
2022/04/04 04:56:04;;;;;;;4.80;4.13;;;;;;;1.87;97.25;100149.47;5073919;28;20634;-73
2022/04/04 04:58:30;;;;;;;6.10;5.60;;;;;;;1.87;96.93;100147.59;5073734;28;20206;-71
2022/04/04 05:00:55;;;;;;;3.10;2.90;;;;;;;1.90;96.50;100133.63;5073916;28;20194;-72
2022/04/04 05:03:27;;;;;;;4.13;3.83;;;;;;;1.92;96.53;100133.34;5074078;28;20244;-72
2022/04/04 05:05:53;;;;;;;6.03;5.27;;;;;;;1.93;96.19;100135.78;5073839;28;20170;-72
2022/04/04 05:08:18;;;;;;;2.97;2.43;;;;;;;1.97;95.48;100126.09;5073715;28;20178;-73
2022/04/04 05:10:44;;;;;;;3.73;3.43;;;;;;;2.01;94.68;100121.00;5073605;28;20525;-74
2022/04/04 05:13:09;;;;;;;1.73;1.00;;;;;;;2.05;93.93;100131.00;5073856;28;20500;-72
2022/04/04 05:15:35;;;;;;;2.57;2.37;;;;;;;2.09;93.57;100109.72;5073838;28;20546;-73
2022/04/04 05:18:00;;;;;;;7.23;3.30;;;;;;;2.11;92.88;100104.06;5073401;28;20221;-74
2022/04/04 05:20:26;;;;;;;11.03;2.80;;;;;;;2.15;92.41;100124.81;5073849;28;20250;-73
2022/04/04 05:22:52;;;;;;;4.53;4.23;;;;;;;2.15;92.36;100107.84;5073400;28;20202;-71
2022/04/04 05:25:17;;;;;;;3.47;2.83;;;;;;;2.17;91.65;100106.53;5073341;28;20337;-72
2022/04/04 05:27:42;;;;;;;1.80;1.70;;;;;;;2.19;91.23;100106.25;5073514;28;20254;-73
2022/04/04 05:30:08;;;;;;;4.17;3.77;;;;;;;2.21;91.09;100112.19;5073408;28;20588;-73
2022/04/04 05:32:34;;;;;;;14.20;4.60;;;;;;;2.21;90.79;100096.84;5073157;28;20174;-73
2022/04/04 05:35:01;;;;;;;1.20;1.20;;;;;;;2.23;90.92;100094.69;5073114;28;20216;-73
2022/04/04 05:37:26;;;;;;;2.70;2.50;;;;;;;2.28;89.73;100086.59;5073220;28;20170;-72
2022/04/04 05:39:51;;;;;;;3.10;2.90;;;;;;;2.32;89.35;100095.81;5073149;28;20656;-76
2022/04/04 05:42:17;;;;;;;6.30;3.97;;;;;;;2.34;88.78;100082.88;5073088;28;20665;-73
2022/04/04 05:44:42;;;;;;;3.20;2.90;;;;;;;2.35;88.28;100079.09;5073108;28;20202;-74
2022/04/04 05:47:11;;;;;;;2.30;2.10;;;;;;;2.41;87.74;100079.91;5072907;28;20560;-75
2022/04/04 05:49:36;;;;;;;4.80;4.37;;;;;;;2.45;86.69;100078.28;5073124;28;20249;-72
2022/04/04 05:52:02;;;;;;;2.43;2.23;;;;;;;2.49;86.44;100070.50;5072864;28;20261;-73
2022/04/04 05:54:27;;;;;;;3.47;3.20;;;;;;;2.50;86.31;100064.03;5072995;28;20206;-73
2022/04/04 05:56:53;;;;;;;1.33;1.33;;;;;;;2.50;86.08;100064.03;5072857;28;20205;-73
2022/04/04 05:59:18;;;;;;;2.40;2.30;;;;;;;2.53;85.85;100050.81;5072861;28;20171;-74
2022/04/04 06:01:43;;;;;;;1.93;0.87;;;;;;;2.58;85.18;100068.88;5072780;28;20622;-73
2022/04/04 06:04:09;;;;;;;1.73;1.63;;;;;;;2.59;84.98;100051.63;5072690;28;20202;-73
2022/04/04 06:06:35;;;;;;;6.37;4.17;;;;;;;2.63;83.95;100053.53;5071726;28;20178;-73
2022/04/04 06:09:00;;;;;;;1.23;1.20;;;;;;;2.66;83.35;100039.50;5072595;28;20506;-73
2022/04/04 06:11:26;;;;;;;1.97;1.87;;;;;;;2.70;82.35;100045.16;5072559;28;20175;-73
2022/04/04 06:13:51;;;;;;;2.50;2.30;;;;;;;2.77;81.16;100031.41;5072693;28;20269;-74
2022/04/04 06:16:17;;;;;;;1.90;1.80;;;;;;;2.82;80.13;100026.81;5072521;28;20224;-73
2022/04/04 06:18:43;;;;;;;1.40;1.33;;;;;;;2.87;79.73;100021.41;5072238;28;20759;-76
2022/04/04 06:21:08;;;;;;;7.83;4.10;;;;;;;2.91;79.44;100016.31;5072390;28;20166;-73
2022/04/04 06:23:34;;;;;;;1.67;1.57;;;;;;;2.98;79.00;100006.84;5072340;28;20202;-76
2022/04/04 06:26:06;;;;;;;5.37;4.33;;;;;;;3.04;77.96;100009.53;5072711;28;20171;-72
2022/04/04 06:28:34;;;;;;;2.47;2.17;;;;;;;3.06;77.61;100002.00;5072205;28;20607;-72
2022/04/04 06:31:01;;;;;;;4.87;3.60;;;;;;;3.10;77.08;100005.75;5072133;28;20175;-73
2022/04/04 06:33:27;;;;;;;2.77;2.53;;;;;;;3.10;77.43;99993.06;5070770;28;20187;-74
2022/04/04 06:35:54;;;;;;;1.97;1.50;;;;;;;3.13;77.36;100000.59;5072263;28;20197;-73
2022/04/04 06:38:19;;;;;;;12.70;1.43;;;;;;;3.16;77.04;99980.34;5072252;28;20179;-72
2022/04/04 06:40:45;;;;;;;1.20;1.00;;;;;;;3.20;76.82;99995.75;5071982;28;20707;-74
2022/04/04 06:43:10;;;;;;;1.27;1.03;;;;;;;3.22;76.17;99973.88;5071897;28;20213;-74
2022/04/04 06:45:36;;;;;;;4.93;3.00;;;;;;;3.24;75.64;99977.09;5072393;28;20175;-73
2022/04/04 06:48:01;;;;;;;4.50;3.57;;;;;;;3.27;75.40;99974.66;5071678;28;20174;-75
2022/04/04 06:50:27;;;;;;;5.90;2.33;;;;;;;3.31;75.30;99961.41;5071834;28;20182;-73
2022/04/04 06:52:52;;;;;;;3.03;2.83;;;;;;;3.36;75.42;99957.91;5071774;28;20185;-76
2022/04/04 06:55:18;;;;;;;1.63;1.53;;;;;;;3.39;75.27;99963.56;5071841;28;20236;-74
2022/04/04 06:57:44;;;;;;;4.03;3.63;;;;;;;3.45;74.22;99943.53;5071862;28;20532;-74
2022/04/04 07:00:11;;;;;;;2.63;1.60;;;;;;;3.50;73.69;99937.34;5071947;28;20166;-75
2022/04/04 07:02:38;;;;;;;1.37;1.30;;;;;;;3.56;73.50;99934.31;5071508;28;20229;-74
2022/04/04 07:05:05;;;;;;;3.73;3.33;;;;;;;3.66;73.74;99924.56;5071570;28;20343;-75
2022/04/04 07:07:31;;;;;;;1.27;1.23;;;;;;;3.73;72.87;99927.75;5071330;28;20175;-77
2022/04/04 07:09:56;;;;;;;2.70;2.50;;;;;;;3.69;72.22;99919.41;5071078;28;20163;-75
2022/04/04 07:12:22;;;;;;;5.70;2.70;;;;;;;3.72;72.37;99923.44;5070874;28;20265;-72
2022/04/04 07:14:47;;;;;;;1.97;1.63;;;;;;;3.73;71.57;99909.66;5070928;28;20510;-77
2022/04/04 07:17:12;;;;;;;2.93;2.37;;;;;;;3.74;71.65;99910.44;5071033;28;20618;-72
2022/04/04 07:19:38;;;;;;;2.23;2.03;;;;;;;3.74;71.61;99900.44;5071212;28;20181;-73
2022/04/04 07:22:04;;;;;;;3.30;3.00;;;;;;;3.73;71.40;99900.72;5071092;28;20170;-72
2022/04/04 07:24:29;;;;;;;2.17;1.83;;;;;;;3.77;71.40;99901.81;5071195;28;20257;-73
2022/04/04 07:26:56;;;;;;;1.20;0.80;;;;;;;3.81;71.63;99900.97;5071024;28;20171;-73
2022/04/04 07:29:21;;;;;;;1.80;1.63;;;;;;;3.83;70.92;99892.56;5071146;28;20202;-74
2022/04/04 07:31:47;;;;;;;3.10;2.13;;;;;;;3.92;70.56;99898.22;5070989;28;20206;-73
2022/04/04 07:34:12;;;;;;;1.70;1.60;;;;;;;3.96;70.44;99883.84;5071163;28;20721;-74
2022/04/04 07:36:40;;;;;;;1.57;1.47;;;;;;;3.99;70.29;99893.28;5071004;28;20166;-72
2022/04/04 07:39:06;;;;;;;5.40;2.50;;;;;;;3.96;70.16;99883.03;5070779;28;20220;-73
2022/04/04 07:41:31;;;;;;;1.30;1.17;;;;;;;3.96;70.29;99870.31;5070975;28;20175;-72
2022/04/04 07:43:56;;;;;;;1.60;1.47;;;;;;;3.97;69.98;99888.16;5070995;28;20222;-76
2022/04/04 07:46:22;;;;;;;2.13;2.03;;;;;;;3.97;69.37;99871.94;5070961;28;20256;-75
2022/04/04 07:48:47;;;;;;;1.83;1.73;;;;;;;4.01;69.52;99869.47;5070823;28;20559;-73
2022/04/04 07:51:13;;;;;;;1.90;1.70;;;;;;;4.05;69.65;99867.81;5070980;28;20177;-73
2022/04/04 07:53:38;;;;;;;0.70;0.70;;;;;;;4.10;69.97;99855.09;5071194;28;20225;-74
2022/04/04 07:56:04;;;;;;;1.77;1.67;;;;;;;4.12;68.82;99850.19;5070905;28;20193;-74
2022/04/04 07:58:29;;;;;;;2.23;2.07;;;;;;;4.12;68.22;99841.28;5070590;28;20656;-73
2022/04/04 08:00:55;;;;;;;1.43;1.33;;;;;;;4.13;68.50;99840.19;5070682;28;20273;-75
2022/04/04 08:03:22;;;;;;;3.33;2.97;;;;;;;4.18;68.49;99835.53;5067400;28;20206;-75
2022/04/04 08:05:47;;;;;;;1.60;1.50;;;;;;;4.21;67.75;99828.78;5067478;28;20181;-76
2022/04/04 08:08:13;;;;;;;2.47;2.27;;;;;;;4.22;67.85;99810.66;5070132;28;20163;-76
2022/04/04 08:10:38;;;;;;;2.57;2.03;;;;;;;4.28;67.64;99834.66;5070165;28;20175;-76
2022/04/04 08:13:04;;;;;;;1.60;1.33;;;;;;;4.25;67.66;99813.59;5070276;28;20174;-76
2022/04/04 08:15:29;;;;;;;2.90;2.53;;;;;;;4.33;67.78;99812.16;5070144;28;20253;-76
2022/04/04 08:17:55;;;;;;;1.53;1.43;;;;;;;4.36;67.16;99806.19;5069920;28;20589;-77
2022/04/04 08:20:21;;;;;;;5.47;2.47;;;;;;;4.38;66.79;99795.91;5069905;28;20677;-78
2022/04/04 08:22:47;;;;;;;1.00;1.00;;;;;;;4.45;66.98;99790.94;5069995;28;20232;-79
2022/04/04 08:25:14;;;;;;;9.33;1.80;;;;;;;4.46;66.95;99792.53;5070130;28;20198;-80
2022/04/04 08:27:41;;;;;;;1.37;1.27;;;;;;;4.44;66.41;99783.91;5069708;28;20664;-79
2022/04/04 08:30:08;;;;;;;3.13;2.83;;;;;;;4.50;67.19;99774.69;5073465;28;20261;-79
2022/04/04 08:32:37;;;;;;;3.20;2.90;;;;;;;4.59;66.91;99785.66;5073632;28;20181;-79
2022/04/04 08:35:11;;;;;;;2.47;1.97;;;;;;;4.67;66.60;99774.22;5073463;28;20183;-76
2022/04/04 08:37:38;;;;;;;2.47;2.27;;;;;;;4.66;65.62;99770.69;5071000;28;20178;-79
2022/04/04 08:40:05;;;;;;;2.87;2.67;;;;;;;4.68;64.68;99762.28;5073192;28;20186;-76
2022/04/04 08:42:31;;;;;;;2.30;2.20;;;;;;;4.75;64.85;99749.19;5072950;28;20256;-78
2022/04/04 08:44:58;;;;;;;5.37;1.93;;;;;;;4.80;64.42;99759.97;5073418;28;20179;-78
2022/04/04 08:47:25;;;;;;;6.90;3.13;;;;;;;4.77;63.03;99737.00;5072878;28;20185;-79
2022/04/04 08:49:52;;;;;;;2.23;2.07;;;;;;;4.83;64.03;99732.34;5073349;28;20301;-79
2022/04/04 08:52:18;;;;;;;0.63;0.63;;;;;;;4.89;63.05;99731.16;5069765;28;20531;-73
2022/04/04 08:54:43;;;;;;;1.70;1.60;;;;;;;4.92;62.52;99738.72;5073281;28;20193;-77
2022/04/04 08:57:09;;;;;;;19.33;1.60;;;;;;;4.96;62.15;99728.91;5073187;28;20262;-77
2022/04/04 08:59:34;;;;;;;2.30;2.20;;;;;;;4.97;61.47;99727.81;5073460;28;20281;-79
2022/04/04 09:02:00;;;;;;;3.70;2.50;;;;;;;5.02;61.98;99716.91;5073460;28;20175;-77
2022/04/04 09:04:25;;;;;;;2.87;2.67;;;;;;;5.00;61.48;99704.75;5073486;28;20175;-76
2022/04/04 09:06:57;;;;;;;1.40;1.30;;;;;;;4.99;61.39;99705.84;5073227;28;20531;-79
2022/04/04 09:09:36;;;;;;;0.73;0.73;;;;;;;4.98;61.33;99674.47;5073265;28;20174;-79
2022/04/04 09:12:08;;;;;;;3.20;1.27;;;;;;;5.00;61.76;99680.41;5073427;28;20178;-77
2022/04/04 09:14:57;;;;;;;1.53;1.43;;;;;;;4.98;61.35;99659.03;5071884;28;20540;-75
2022/04/04 09:17:27;;;;;;;2.67;2.30;;;;;;;5.03;62.09;99664.38;5068764;28;20186;-74
2022/04/04 09:19:52;;;;;;;1.30;1.20;;;;;;;5.01;62.20;99668.47;5072785;28;20243;-74
2022/04/04 09:22:19;;;;;;;2.00;1.90;;;;;;;5.04;62.23;99648.94;5071815;28;20592;-73
2022/04/04 09:24:50;;;;;;;2.33;2.13;;;;;;;5.04;62.48;99654.34;5073100;28;20177;-73
2022/04/04 09:27:26;;;;;;;1.43;1.33;;;;;;;5.01;62.20;99644.91;5072848;28;20178;-76
2022/04/04 09:30:04;;;;;;;1.90;1.80;;;;;;;4.97;62.70;99634.97;5072962;28;20208;-73
2022/04/04 09:32:38;;;;;;;4.87;2.43;;;;;;;4.90;63.50;99629.91;5073097;28;20189;-73
2022/04/04 09:35:18;;;;;;;3.53;3.27;;;;;;;4.81;64.21;99652.53;5073000;28;20174;-73
2022/04/04 09:37:45;;;;;;;2.00;1.67;;;;;;;4.73;65.70;99608.78;5071365;28;20706;-74
2022/04/04 09:40:15;;;;;;;4.40;2.27;;;;;;;4.64;66.22;99601.66;5071553;28;20185;-74
2022/04/04 09:43:02;;;;;;;3.17;2.87;;;;;;;4.68;67.81;99613.50;5073322;28;20241;-75
2022/04/04 09:45:29;;;;;;;3.87;3.07;;;;;;;4.64;68.38;99588.94;5072546;28;20190;-73
2022/04/04 09:47:56;;;;;;;4.67;3.47;;;;;;;4.45;69.67;99569.16;5072478;28;20175;-73
2022/04/04 09:50:30;;;;;;;2.63;2.43;;;;;;;4.18;72.08;99524.66;5072936;28;20531;-75
2022/04/04 09:52:57;;;;;;;2.43;2.23;;;;;;;4.10;73.69;99514.50;5072912;28;20173;-76
2022/04/04 09:55:32;;;;;;;1.73;1.63;;;;;;;4.12;74.36;99517.72;5072483;28;20229;-73
2022/04/04 09:57:59;;;;;;;4.23;3.83;;;;;;;4.16;74.47;99507.13;5072253;28;20265;-75
2022/04/04 10:00:25;;;;;;;3.77;3.40;;;;;;;4.20;74.42;99516.28;5072504;28;20171;-74
2022/04/04 10:02:55;;;;;;;3.40;3.10;;;;;;;4.27;73.97;99478.06;5072566;28;20206;-73
2022/04/04 10:05:22;;;;;;;1.97;1.87;;;;;;;4.31;74.01;99473.66;5072395;28;20265;-72
2022/04/04 10:07:50;;;;;;;1.23;0.87;;;;;;;4.37;74.07;99472.50;5072097;28;20194;-75
2022/04/04 10:10:16;;;;;;;3.13;2.83;;;;;;;4.34;73.77;99464.94;5072332;28;20174;-77
2022/04/04 10:12:43;;;;;;;4.23;3.83;;;;;;;4.35;75.29;99461.19;5066688;28;20186;-73
2022/04/04 10:15:09;;;;;;;4.57;2.67;;;;;;;4.38;74.62;99447.06;5071349;28;20539;-77
2022/04/04 10:17:34;;;;;;;5.13;2.60;;;;;;;4.46;74.08;99458.00;5072630;28;20179;-77
2022/04/04 10:20:01;;;;;;;2.70;2.50;;;;;;;4.46;73.47;99447.19;5072344;28;20206;-78
2022/04/04 10:22:27;;;;;;;1.70;1.60;;;;;;;4.46;73.01;99432.84;5072628;28;20256;-76
2022/04/04 10:24:53;;;;;;;0.23;0.23;;;;;;;4.57;74.22;99442.41;5073024;28;20179;-75
2022/04/04 10:27:22;;;;;;;4.57;3.90;;;;;;;4.59;73.88;99437.50;5072240;28;20171;-77
2022/04/04 10:29:48;;;;;;;2.70;2.50;;;;;;;4.54;73.59;99434.91;5070845;28;20764;-79
2022/04/04 10:32:27;;;;;;;3.67;2.13;;;;;;;4.53;74.49;99421.66;5072639;28;20181;-78
2022/04/04 10:34:53;;;;;;;2.27;1.70;;;;;;;4.50;74.65;99411.47;5072443;28;20250;-77
2022/04/04 10:37:22;;;;;;;2.77;2.40;;;;;;;4.63;75.14;99407.94;5072132;28;20215;-79
2022/04/04 10:39:49;;;;;;;0.93;0.93;;;;;;;4.71;73.90;99405.38;5071994;28;20642;-78
2022/04/04 10:42:24;;;;;;;4.07;3.67;;;;;;;4.84;73.48;99409.22;5071924;28;20171;-79
2022/04/04 10:44:56;;;;;;;6.90;1.03;;;;;;;4.87;72.22;99400.47;5072105;28;20570;-78
2022/04/04 10:47:24;;;;;;;3.70;1.97;;;;;;;4.91;72.16;99379.84;5071919;28;20244;-79
2022/04/04 10:49:50;;;;;;;2.30;2.07;;;;;;;4.99;72.69;99389.16;5071942;28;20171;-79
2022/04/04 10:52:22;;;;;;;3.67;3.37;;;;;;;5.00;72.41;99386.16;5071427;28;20257;-79
2022/04/04 10:54:47;;;;;;;3.07;2.77;;;;;;;4.99;72.19;99383.75;5071716;28;20540;-80
2022/04/04 10:57:17;;;;;;;2.73;2.53;;;;;;;4.95;73.39;99356.50;5071495;28;20171;-80
2022/04/04 10:59:47;;;;;;;4.30;4.00;;;;;;;4.95;73.77;99366.53;5071756;28;20674;-79
2022/04/04 11:02:18;;;;;;;3.77;3.53;;;;;;;4.91;74.24;99351.97;5071558;28;20509;-76
2022/04/04 11:07:41;;;;;;;2.57;2.37;;;;;;;4.90;74.29;99359.28;5071245;28;20588;-78
2022/04/04 11:10:32;;;;;;;4.80;4.40;;;;;;;4.83;75.87;99371.63;5070430;28;20265;-72
2022/04/04 11:13:04;;;;;;;11.97;5.97;;;;;;;4.70;77.74;99344.25;5072462;28;20178;-72
2022/04/04 11:15:43;;;;;;;6.33;5.73;;;;;;;4.46;79.17;99333.59;5072227;28;20248;-72
2022/04/04 11:18:09;;;;;;;2.30;2.20;;;;;;;4.35;81.33;99339.50;5071920;28;20166;-72
2022/04/04 11:20:36;;;;;;;4.63;4.20;;;;;;;4.30;82.04;99329.56;5071356;28;20249;-73
2022/04/04 11:23:10;;;;;;;3.00;2.80;;;;;;;4.26;83.52;99350.19;5071365;28;20282;-74
2022/04/04 11:25:37;;;;;;;5.10;3.93;;;;;;;4.18;85.96;99323.81;5071166;28;20177;-74
2022/04/04 11:28:06;;;;;;;10.27;7.73;;;;;;;4.12;87.60;99323.13;5071213;28;20175;-73
2022/04/04 11:30:32;;;;;;;7.73;5.90;;;;;;;4.10;87.53;99346.94;5071253;28;20174;-75
2022/04/04 11:32:59;;;;;;;5.70;5.13;;;;;;;4.13;89.00;99313.91;5071428;28;20629;-76
2022/04/04 11:35:27;;;;;;;6.70;5.70;;;;;;;4.16;88.77;99326.81;5070082;28;20607;-73
2022/04/04 11:38:05;;;;;;;4.67;4.27;;;;;;;4.22;88.89;99318.66;5069489;28;20181;-76
2022/04/04 11:40:37;;;;;;;17.27;7.57;;;;;;;4.24;89.19;99302.94;5071168;28;20216;-73